Time;durP1;ratioP1;P1;durP2;ratioP2;P2;SDS_P1;SDS_P2;PMS_P1;PMS_P2;Temp;Humidity;BMP_temperature;BMP_pressure;BME280_temperature;BME280_humidity;BME280_pressure;Samples;Min_cycle;Max_cycle;Signal;HPM_P1;HPM_P2
2023/06/23 00:01:45;;;;;;;11.57;10.77;;;17.80;81.30;;;;;;6223639;28;20872;-81
2023/06/23 00:04:49;;;;;;;13.57;11.70;;;17.80;81.10;;;;;;6241815;28;20364;-81
2023/06/23 00:07:53;;;;;;;11.93;10.90;;;17.80;81.20;;;;;;6225449;28;20246;-82
2023/06/23 00:10:57;;;;;;;12.90;11.83;;;17.80;81.20;;;;;;6234030;28;20341;-81
2023/06/23 00:14:01;;;;;;;11.73;10.73;;;17.80;81.10;;;;;;6238569;28;20501;-82
2023/06/23 00:17:07;;;;;;;12.13;11.13;;;17.80;81.30;;;;;;6232712;28;21052;-81
2023/06/23 00:20:12;;;;;;;12.97;11.97;;;17.80;81.40;;;;;;6230031;28;20610;-82
2023/06/23 00:23:17;;;;;;;13.23;12.23;;;17.80;81.80;;;;;;6230076;28;20243;-82
2023/06/23 00:26:22;;;;;;;11.50;10.60;;;17.70;81.80;;;;;;6231252;28;20292;-84
2023/06/23 00:29:26;;;;;;;12.33;11.43;;;17.70;81.90;;;;;;6237157;28;20896;-83
2023/06/23 00:32:29;;;;;;;11.97;10.93;;;17.80;81.90;;;;;;6232793;28;21198;-82
2023/06/23 00:35:32;;;;;;;12.10;11.10;;;17.70;81.70;;;;;;6237166;28;20245;-81
2023/06/23 00:38:38;;;;;;;11.83;10.93;;;17.80;81.60;;;;;;6232986;28;20262;-80
2023/06/23 00:41:41;;;;;;;10.83;10.17;;;17.60;81.70;;;;;;6241662;28;20353;-80
2023/06/23 00:44:47;;;;;;;10.37;9.77;;;17.60;81.90;;;;;;6229836;28;20313;-84
2023/06/23 00:47:51;;;;;;;10.77;10.00;;;17.70;81.90;;;;;;6237755;28;20792;-84
2023/06/23 00:50:57;;;;;;;11.57;10.77;;;17.60;81.80;;;;;;6225196;28;20358;-79
2023/06/23 00:54:01;;;;;;;11.07;10.27;;;17.70;81.70;;;;;;6233124;28;20230;-82
2023/06/23 00:57:05;;;;;;;10.93;10.20;;;17.70;81.70;;;;;;6235442;28;20749;-81
2023/06/23 01:00:13;;;;;;;11.13;10.23;;;17.70;81.50;;;;;;6240931;28;20246;-82
2023/06/23 01:03:17;;;;;;;10.80;10.00;;;17.80;81.20;;;;;;6237196;28;20818;-82
2023/06/23 01:06:31;;;;;;;10.43;9.63;;;17.70;81.10;;;;;;6238437;28;20259;-83
2023/06/23 01:09:46;;;;;;;11.00;10.10;;;17.60;81.40;;;;;;6237746;28;20231;-82
2023/06/23 01:13:00;;;;;;;11.93;11.03;;;17.60;81.50;;;;;;6230300;28;20282;-83
2023/06/23 01:16:09;;;;;;;11.20;10.23;;;17.70;81.50;;;;;;6231615;28;20241;-82
2023/06/23 01:19:19;;;;;;;12.43;11.53;;;17.70;81.60;;;;;;6228533;28;20246;-80
2023/06/23 01:22:31;;;;;;;11.37;10.57;;;17.70;81.80;;;;;;6239871;28;20241;-80
2023/06/23 01:25:47;;;;;;;10.13;9.43;;;17.70;82.00;;;;;;6236489;28;20292;-80
2023/06/23 01:28:53;;;;;;;10.37;9.77;;;17.70;82.00;;;;;;6226271;28;20261;-80
2023/06/23 01:32:04;;;;;;;10.77;10.00;;;17.70;82.00;;;;;;6228392;28;20863;-81
2023/06/23 01:35:15;;;;;;;14.00;12.63;;;17.80;82.00;;;;;;6232042;28;20243;-81
2023/06/23 01:38:23;;;;;;;12.07;10.97;;;17.70;82.40;;;;;;6238433;28;20226;-79
2023/06/23 01:41:31;;;;;;;11.30;10.37;;;17.80;82.10;;;;;;6236952;28;20329;-81
2023/06/23 01:44:38;;;;;;;12.03;10.93;;;17.70;82.10;;;;;;6240560;28;20642;-83
2023/06/23 01:47:48;;;;;;;11.47;10.63;;;17.70;82.30;;;;;;6233814;28;20243;-79
2023/06/23 01:50:53;;;;;;;11.40;10.30;;;17.70;82.50;;;;;;6231330;28;20848;-81
2023/06/23 01:53:59;;;;;;;11.07;10.17;;;17.60;82.40;;;;;;6240825;28;20312;-83
2023/06/23 01:57:03;;;;;;;11.87;10.87;;;17.60;82.50;;;;;;6229769;28;20406;-82
2023/06/23 02:00:11;;;;;;;10.07;9.47;;;17.60;82.60;;;;;;6230494;28;20227;-80
2023/06/23 02:03:16;;;;;;;11.47;10.33;;;17.60;82.70;;;;;;6233817;28;20266;-80
2023/06/23 02:06:21;;;;;;;12.10;10.70;;;17.60;82.70;;;;;;6237959;28;20246;-81
2023/06/23 02:09:28;;;;;;;11.97;10.37;;;17.50;82.80;;;;;;6233459;28;20749;-80
2023/06/23 02:12:32;;;;;;;11.93;10.93;;;17.50;82.80;;;;;;6249202;28;20801;-80
2023/06/23 02:15:38;;;;;;;11.80;10.90;;;17.50;82.80;;;;;;6232792;28;20531;-81
2023/06/23 02:18:42;;;;;;;9.97;9.33;;;17.50;82.90;;;;;;6222276;28;20230;-79
2023/06/23 02:21:47;;;;;;;10.00;9.07;;;17.50;82.80;;;;;;6215390;28;20235;-81
2023/06/23 02:24:54;;;;;;;10.53;9.67;;;17.50;82.80;;;;;;6230897;28;21024;-78
2023/06/23 02:27:58;;;;;;;10.50;9.70;;;17.50;82.80;;;;;;6230417;28;20231;-82
2023/06/23 02:31:04;;;;;;;10.50;9.63;;;17.50;82.80;;;;;;6233472;28;20304;-81
2023/06/23 02:34:08;;;;;;;10.00;9.30;;;17.50;82.90;;;;;;6228602;28;20231;-82
2023/06/23 02:37:11;;;;;;;11.00;10.10;;;17.50;82.90;;;;;;6221436;28;20262;-83
2023/06/23 02:40:18;;;;;;;12.03;10.90;;;17.50;83.00;;;;;;6226837;28;20293;-79
2023/06/23 02:43:27;;;;;;;10.37;9.67;;;17.50;82.90;;;;;;6221284;28;20778;-80
2023/06/23 02:46:38;;;;;;;9.43;8.77;;;17.50;82.90;;;;;;6216820;28;20305;-80
2023/06/23 02:49:44;;;;;;;9.43;8.80;;;17.50;82.90;;;;;;6220136;28;20237;-80
2023/06/23 02:52:49;;;;;;;9.50;8.83;;;17.40;82.90;;;;;;6229326;28;20805;-81
2023/06/23 02:56:01;;;;;;;10.83;10.03;;;17.50;83.00;;;;;;6226117;28;20230;-81
2023/06/23 02:59:06;;;;;;;9.43;8.63;;;17.40;82.90;;;;;;6235633;28;20358;-81
2023/06/23 03:02:12;;;;;;;10.87;10.07;;;17.40;82.90;;;;;;6224076;28;22356;-81
2023/06/23 03:05:16;;;;;;;10.77;9.67;;;17.40;83.00;;;;;;6224283;28;20618;-82
2023/06/23 03:08:19;;;;;;;9.93;9.13;;;17.40;83.00;;;;;;6233537;28;20278;-80
2023/06/23 03:11:23;;;;;;;11.40;10.40;;;17.40;83.00;;;;;;6233587;28;20274;-81
2023/06/23 03:14:26;;;;;;;11.37;10.37;;;17.40;83.10;;;;;;6229107;28;20234;-80
2023/06/23 03:17:35;;;;;;;11.77;10.80;;;17.30;83.20;;;;;;6208575;28;20238;-80
2023/06/23 03:20:45;;;;;;;10.50;9.77;;;17.30;83.30;;;;;;6221094;28;20241;-81
2023/06/23 03:23:50;;;;;;;12.30;11.33;;;17.30;83.30;;;;;;6214347;28;20239;-82
2023/06/23 03:26:57;;;;;;;11.63;10.83;;;17.30;83.20;;;;;;6230187;28;20246;-82
2023/06/23 03:30:04;;;;;;;12.03;10.90;;;17.30;83.30;;;;;;6244383;28;20234;-81
2023/06/23 03:33:15;;;;;;;11.00;10.10;;;17.30;83.30;;;;;;6224839;28;20239;-83
2023/06/23 03:36:22;;;;;;;9.97;9.27;;;17.40;83.40;;;;;;6232007;28;20305;-85
2023/06/23 03:39:29;;;;;;;10.53;9.83;;;17.40;83.30;;;;;;6228811;28;20397;-82
2023/06/23 03:42:37;;;;;;;10.40;9.60;;;17.50;83.30;;;;;;6233767;28;20242;-81
2023/06/23 03:45:43;;;;;;;10.23;9.53;;;17.50;83.20;;;;;;6222581;28;20426;-83
2023/06/23 03:48:52;;;;;;;9.83;9.23;;;17.50;83.20;;;;;;6229174;28;20765;-84
2023/06/23 03:51:58;;;;;;;10.13;9.53;;;17.50;83.20;;;;;;6234315;28;20253;-83
2023/06/23 03:55:02;;;;;;;10.37;9.50;;;17.50;83.10;;;;;;6237898;28;20250;-84
2023/06/23 03:58:08;;;;;;;11.23;10.20;;;17.50;83.20;;;;;;6230207;28;20227;-82
2023/06/23 04:01:13;;;;;;;10.40;9.60;;;17.50;83.10;;;;;;6235219;28;20426;-82
2023/06/23 04:04:19;;;;;;;12.20;11.23;;;17.60;83.00;;;;;;6225159;28;20234;-82
2023/06/23 04:07:25;;;;;;;9.57;8.83;;;17.60;83.00;;;;;;6229982;28;20239;-81
2023/06/23 04:10:29;;;;;;;10.60;9.90;;;17.60;82.90;;;;;;6228034;28;20332;-85
2023/06/23 04:13:36;;;;;;;11.17;10.30;;;17.60;82.80;;;;;;6234134;28;20234;-82
2023/06/23 04:16:41;;;;;;;10.13;9.43;;;17.60;82.80;;;;;;6226809;28;20246;-82
2023/06/23 04:19:49;;;;;;;9.77;9.10;;;17.70;82.80;;;;;;6222399;28;20231;-83
2023/06/23 04:22:54;;;;;;;12.50;11.50;;;17.70;82.80;;;;;;6236560;28;20286;-85
2023/06/23 04:26:00;;;;;;;10.40;9.70;;;17.70;83.00;;;;;;6232773;28;21633;-84
2023/06/23 04:29:05;;;;;;;11.67;10.80;;;17.80;83.00;;;;;;6233952;28;20306;-85
2023/06/23 04:32:10;;;;;;;11.37;10.57;;;17.80;83.00;;;;;;6223692;28;20242;-80
2023/06/23 04:35:15;;;;;;;12.70;11.70;;;17.80;83.00;;;;;;6229070;28;20840;-85
2023/06/23 04:38:24;;;;;;;10.57;9.67;;;17.80;82.90;;;;;;6229625;28;20708;-83
2023/06/23 04:41:30;;;;;;;9.57;8.93;;;17.80;82.80;;;;;;6228262;28;20241;-84
2023/06/23 04:44:39;;;;;;;12.87;11.77;;;17.80;83.00;;;;;;6232894;28;20231;-82
2023/06/23 04:47:46;;;;;;;10.70;9.97;;;17.80;82.90;;;;;;6220410;28;20266;-86
2023/06/23 04:50:53;;;;;;;12.97;11.80;;;17.80;82.90;;;;;;6229365;28;20246;-83
2023/06/23 04:54:01;;;;;;;12.93;11.83;;;17.80;82.90;;;;;;6215678;28;20235;-83
2023/06/23 04:57:08;;;;;;;14.17;13.03;;;17.80;82.90;;;;;;6226697;28;20251;-82
2023/06/23 05:00:16;;;;;;;13.00;12.10;;;17.80;82.70;;;;;;6240770;28;20234;-84
2023/06/23 05:03:21;;;;;;;13.67;12.37;;;17.80;82.80;;;;;;6230315;28;20239;-85
2023/06/23 05:06:28;;;;;;;13.47;12.37;;;17.80;82.70;;;;;;6237930;28;21814;-86
2023/06/23 05:09:34;;;;;;;12.47;11.47;;;17.80;82.70;;;;;;6234350;28;20239;-82
2023/06/23 05:12:41;;;;;;;13.47;12.47;;;17.80;82.60;;;;;;6231439;28;20243;-83
2023/06/23 05:15:49;;;;;;;11.53;10.73;;;17.80;82.70;;;;;;6235763;28;20278;-83
2023/06/23 05:19:00;;;;;;;14.57;13.13;;;17.80;82.70;;;;;;6224859;28;20234;-79
2023/06/23 05:22:08;;;;;;;13.70;12.70;;;17.80;82.80;;;;;;6229129;28;20364;-83
2023/06/23 05:25:12;;;;;;;11.20;10.40;;;17.80;82.80;;;;;;6259779;28;20297;-78
2023/06/23 05:28:17;;;;;;;12.53;11.63;;;17.80;82.70;;;;;;6246867;28;20326;-81
2023/06/23 05:31:22;;;;;;;12.00;11.10;;;17.80;82.80;;;;;;6256485;28;20263;-74
2023/06/23 05:34:27;;;;;;;10.47;9.70;;;17.80;82.50;;;;;;6241028;28;20239;-86
2023/06/23 05:37:35;;;;;;;11.07;10.13;;;17.80;82.40;;;;;;6227167;28;20234;-84
2023/06/23 05:40:39;;;;;;;11.17;10.27;;;17.80;82.50;;;;;;6228465;28;20930;-85
2023/06/23 05:43:42;;;;;;;11.50;10.37;;;17.80;82.60;;;;;;6232295;28;20330;-84
2023/06/23 05:46:47;;;;;;;10.83;10.13;;;17.80;82.50;;;;;;6221522;28;20242;-81
2023/06/23 05:49:54;;;;;;;10.27;9.53;;;17.80;82.50;;;;;;6234266;28;20230;-84
2023/06/23 05:53:04;;;;;;;12.83;11.93;;;17.80;82.50;;;;;;6218465;28;20242;-85
2023/06/23 05:56:24;;;;;;;14.20;12.87;;;18.00;82.50;;;;;;6223864;28;20699;-85
2023/06/23 05:59:36;;;;;;;12.23;11.30;;;18.00;82.50;;;;;;6233816;28;20238;-84
2023/06/23 06:02:41;;;;;;;11.20;10.50;;;18.00;82.50;;;;;;6228819;28;20893;-84
2023/06/23 06:05:46;;;;;;;11.20;10.50;;;18.00;82.50;;;;;;6231709;28;20231;-79
2023/06/23 06:08:53;;;;;;;13.00;12.10;;;18.00;82.50;;;;;;6229258;28;20305;-79
2023/06/23 06:11:58;;;;;;;14.50;13.30;;;18.00;82.40;;;;;;6229920;28;20234;-79
2023/06/23 06:15:04;;;;;;;12.60;11.70;;;18.00;82.30;;;;;;6220789;28;20858;-81
2023/06/23 06:18:11;;;;;;;14.13;13.00;;;18.00;82.30;;;;;;6226806;28;20671;-80
2023/06/23 06:21:18;;;;;;;15.93;14.57;;;18.00;82.40;;;;;;6230850;28;20239;-80
2023/06/23 06:24:26;;;;;;;14.67;13.43;;;18.10;82.30;;;;;;6234591;28;20329;-80
2023/06/23 06:27:32;;;;;;;14.00;12.80;;;18.10;82.20;;;;;;6221776;28;20841;-81
2023/06/23 06:30:37;;;;;;;11.90;11.13;;;18.10;82.20;;;;;;6224613;28;20267;-84
2023/06/23 06:33:42;;;;;;;14.23;12.87;;;18.20;82.30;;;;;;6226015;28;20636;-82
2023/06/23 06:36:47;;;;;;;16.20;14.80;;;18.40;82.20;;;;;;6234991;28;20492;-80
2023/06/23 06:39:52;;;;;;;13.63;12.57;;;18.50;81.70;;;;;;6224736;28;20722;-85
2023/06/23 06:42:56;;;;;;;13.13;12.20;;;18.60;81.80;;;;;;6221988;28;20548;-84
2023/06/23 06:46:00;;;;;;;13.90;12.70;;;18.70;81.60;;;;;;6224087;28;20351;-82
2023/06/23 06:49:05;;;;;;;15.20;14.00;;;18.80;81.50;;;;;;6230040;28;20238;-79
2023/06/23 06:52:09;;;;;;;14.03;12.70;;;18.90;81.30;;;;;;6232975;28;20234;-81
2023/06/23 06:55:19;;;;;;;12.17;11.37;;;18.90;81.00;;;;;;6230698;28;20250;-81
2023/06/23 06:58:22;;;;;;;15.73;14.63;;;18.90;80.90;;;;;;6234013;28;20250;-80
2023/06/23 07:01:27;;;;;;;15.00;13.70;;;18.90;80.90;;;;;;6242003;28;20277;-83
2023/06/23 07:04:33;;;;;;;13.93;12.93;;;18.90;80.80;;;;;;6238052;28;20297;-81
2023/06/23 07:07:36;;;;;;;14.00;12.83;;;18.90;80.90;;;;;;6234779;28;20242;-83
2023/06/23 07:10:40;;;;;;;16.53;15.23;;;19.00;80.90;;;;;;6238968;28;20265;-84
2023/06/23 07:13:44;;;;;;;13.40;12.40;;;19.00;80.90;;;;;;6276766;28;20228;-77
2023/06/23 07:16:47;;;;;;;14.87;13.67;;;19.00;80.80;;;;;;6287780;28;20265;-76
2023/06/23 07:19:50;;;;;;;17.67;15.67;;;19.10;80.70;;;;;;6286256;28;20234;-79
2023/06/23 07:22:53;;;;;;;16.50;15.20;;;19.10;80.30;;;;;;6276000;28;20242;-82
2023/06/23 07:25:59;;;;;;;13.20;12.20;;;19.00;80.10;;;;;;6263701;28;20263;-78
2023/06/23 07:29:02;;;;;;;14.37;13.27;;;19.00;80.10;;;;;;6242498;28;20229;-81
2023/06/23 07:32:08;;;;;;;13.83;12.70;;;19.00;80.10;;;;;;6263536;28;20738;-79
2023/06/23 07:35:11;;;;;;;10.97;10.20;;;19.00;79.90;;;;;;6260728;28;20296;-82
2023/06/23 07:38:14;;;;;;;13.17;11.93;;;19.00;79.90;;;;;;6260719;28;20237;-81
2023/06/23 07:41:18;;;;;;;13.03;12.17;;;18.90;79.90;;;;;;6262050;28;20878;-83
2023/06/23 07:44:22;;;;;;;15.10;13.73;;;18.90;80.00;;;;;;6262523;28;20372;-82
2023/06/23 07:47:25;;;;;;;12.97;12.03;;;18.80;79.80;;;;;;6263258;28;20265;-84
2023/06/23 07:50:28;;;;;;;14.03;12.93;;;18.80;79.80;;;;;;6264774;28;20244;-84
2023/06/23 07:53:32;;;;;;;14.37;13.07;;;18.70;80.00;;;;;;6253581;28;20226;-81
2023/06/23 07:56:37;;;;;;;11.47;10.77;;;18.70;80.10;;;;;;6259882;28;20499;-86
2023/06/23 07:59:40;;;;;;;14.47;13.20;;;18.70;80.10;;;;;;6257681;28;20389;-83
2023/06/23 08:02:43;;;;;;;14.23;13.07;;;18.70;80.30;;;;;;6251002;28;20302;-81
2023/06/23 08:05:46;;;;;;;13.17;12.17;;;18.70;80.40;;;;;;6260336;28;20231;-82
2023/06/23 08:08:50;;;;;;;13.77;12.43;;;18.70;80.30;;;;;;6251646;28;20229;-82
2023/06/23 08:11:55;;;;;;;11.53;10.60;;;18.80;80.20;;;;;;6259463;28;20238;-83
2023/06/23 08:14:58;;;;;;;14.10;13.10;;;18.90;80.40;;;;;;6248935;28;20655;-80
2023/06/23 08:18:01;;;;;;;13.77;12.73;;;18.90;80.60;;;;;;6252293;28;20236;-85
2023/06/23 08:21:07;;;;;;;13.97;12.77;;;18.90;80.00;;;;;;6261077;28;20332;-82
2023/06/23 08:24:10;;;;;;;11.27;10.57;;;18.90;79.90;;;;;;6248594;28;20230;-83
2023/06/23 08:27:16;;;;;;;13.53;12.47;;;18.90;80.00;;;;;;6263232;28;20237;-81
2023/06/23 08:30:27;;;;;;;13.57;12.43;;;18.90;79.80;;;;;;6264264;28;20234;-85
2023/06/23 08:33:33;;;;;;;14.30;13.03;;;18.90;79.90;;;;;;6232865;28;20727;-85
2023/06/23 08:36:36;;;;;;;12.20;11.43;;;18.90;80.00;;;;;;6236210;28;20258;-84
2023/06/23 08:39:39;;;;;;;14.13;12.87;;;18.80;80.10;;;;;;6238144;28;20319;-86
2023/06/23 08:42:44;;;;;;;13.50;12.40;;;18.80;80.20;;;;;;6238367;28;20239;-84
2023/06/23 08:45:51;;;;;;;12.67;11.73;;;18.80;80.30;;;;;;6230258;28;20300;-81
2023/06/23 08:48:57;;;;;;;12.33;11.30;;;18.80;80.00;;;;;;6221304;28;20231;-84
2023/06/23 08:52:02;;;;;;;13.17;12.13;;;18.90;79.60;;;;;;6239339;28;20235;-81
2023/06/23 08:55:08;;;;;;;11.57;10.70;;;18.90;79.70;;;;;;6235884;28;20274;-85
2023/06/23 08:58:16;;;;;;;11.80;10.90;;;18.80;79.70;;;;;;6229222;28;20239;-83
2023/06/23 09:01:19;;;;;;;10.70;9.90;;;18.80;79.80;;;;;;6216991;28;20253;-86
2023/06/23 09:04:22;;;;;;;11.77;10.83;;;18.80;79.80;;;;;;6233860;28;20246;-84
2023/06/23 09:07:27;;;;;;;12.07;10.87;;;18.80;79.70;;;;;;6231933;28;20262;-83
2023/06/23 09:10:30;;;;;;;11.23;10.53;;;18.80;79.70;;;;;;6238151;28;20233;-85
2023/06/23 09:13:37;;;;;;;10.77;9.93;;;18.80;79.80;;;;;;6245366;28;20719;-82
2023/06/23 09:16:42;;;;;;;10.83;10.13;;;18.80;79.80;;;;;;6234018;28;20257;-81
2023/06/23 09:19:49;;;;;;;11.80;11.00;;;18.80;79.90;;;;;;6240771;28;20282;-79
2023/06/23 09:22:56;;;;;;;13.77;12.57;;;18.80;80.00;;;;;;6230886;28;20247;-82
2023/06/23 09:26:02;;;;;;;14.00;13.10;;;18.80;80.20;;;;;;6231594;28;20250;-82
2023/06/23 09:29:18;;;;;;;16.23;15.13;;;18.80;80.20;;;;;;6219472;28;20242;-83
2023/06/23 09:32:29;;;;;;;18.57;17.07;;;18.80;80.00;;;;;;6222360;28;20254;-81
2023/06/23 09:35:32;;;;;;;17.53;16.17;;;18.70;80.30;;;;;;6212248;28;20238;-82
2023/06/23 09:38:37;;;;;;;22.60;20.90;;;18.70;80.20;;;;;;6230716;28;20243;-83
2023/06/23 09:41:40;;;;;;;22.20;20.40;;;18.70;80.00;;;;;;6229871;28;20248;-84
2023/06/23 09:44:56;;;;;;;24.80;22.80;;;18.70;80.10;;;;;;6238446;28;20235;-81
2023/06/23 09:48:01;;;;;;;27.07;24.77;;;18.70;79.80;;;;;;6236986;28;20235;-82
2023/06/23 09:51:06;;;;;;;26.97;24.77;;;18.60;80.00;;;;;;6256828;28;20249;-82
2023/06/23 09:54:09;;;;;;;29.63;26.93;;;18.60;80.10;;;;;;6264685;28;20229;-82
2023/06/23 09:57:14;;;;;;;28.80;26.13;;;18.60;80.20;;;;;;6265462;28;20281;-85
2023/06/23 10:00:29;;;;;;;28.40;26.00;;;18.50;80.40;;;;;;6260316;28;20238;-83
2023/06/23 10:03:41;;;;;;;28.27;25.90;;;18.50;80.50;;;;;;6223208;28;20230;-83
2023/06/23 10:06:45;;;;;;;29.07;26.10;;;18.50;80.40;;;;;;6237846;28;20235;-83
2023/06/23 10:09:52;;;;;;;26.53;24.40;;;18.40;80.40;;;;;;6229187;28;20313;-81
2023/06/23 10:13:07;;;;;;;26.77;24.17;;;18.40;80.40;;;;;;6230141;28;20236;-84
2023/06/23 10:16:12;;;;;;;25.63;23.53;;;18.40;80.60;;;;;;6233092;28;20234;-82
2023/06/23 10:19:16;;;;;;;26.13;23.93;;;18.30;80.80;;;;;;6238106;28;20293;-83
2023/06/23 10:22:21;;;;;;;26.97;24.77;;;18.40;80.90;;;;;;6236107;28;20247;-86
2023/06/23 10:25:26;;;;;;;24.37;22.27;;;18.40;81.20;;;;;;6249521;28;20988;-82
2023/06/23 10:28:30;;;;;;;25.67;23.17;;;18.40;81.30;;;;;;6233691;28;20381;-84
2023/06/23 10:31:36;;;;;;;20.53;18.93;;;18.50;81.20;;;;;;6253376;28;20235;-85
2023/06/23 10:34:43;;;;;;;21.67;19.97;;;18.60;81.10;;;;;;6257569;28;20237;-85
2023/06/23 10:37:49;;;;;;;18.73;17.33;;;18.70;81.20;;;;;;6259585;28;20249;-84
2023/06/23 10:40:55;;;;;;;17.50;16.03;;;18.80;80.70;;;;;;6267622;28;20230;-81
2023/06/23 10:43:59;;;;;;;16.27;15.17;;;18.90;80.70;;;;;;6240111;28;20491;-82
2023/06/23 10:47:05;;;;;;;16.73;15.43;;;19.00;80.20;;;;;;6250789;28;20237;-85
2023/06/23 10:50:10;;;;;;;13.60;12.53;;;19.00;79.90;;;;;;6263536;28;20234;-84
2023/06/23 10:53:17;;;;;;;13.40;12.47;;;18.90;79.80;;;;;;6260416;28;20294;-85
2023/06/23 10:56:31;;;;;;;12.97;11.73;;;18.80;79.90;;;;;;6264650;28;20252;-84
2023/06/23 10:59:34;;;;;;;13.50;12.20;;;18.70;80.10;;;;;;6261347;28;20237;-82
2023/06/23 11:02:53;;;;;;;11.40;10.70;;;18.60;80.30;;;;;;6264225;28;20249;-84
2023/06/23 11:05:58;;;;;;;11.90;11.10;;;18.60;80.50;;;;;;6252151;28;20236;-82
2023/06/23 11:09:02;;;;;;;12.70;11.80;;;18.50;80.70;;;;;;6262435;28;20288;-84
2023/06/23 11:12:31;;;;;;;11.97;11.07;;;18.60;80.70;;;;;;6266834;28;20241;-82
2023/06/23 11:15:38;;;;;;;10.90;10.20;;;18.60;81.00;;;;;;6259431;28;20234;-83
2023/06/23 11:18:52;;;;;;;11.20;10.37;;;18.60;80.70;;;;;;6265155;28;20236;-84
2023/06/23 11:22:09;;;;;;;10.67;9.93;;;18.60;80.60;;;;;;6265636;28;20384;-82
2023/06/23 11:25:24;;;;;;;11.63;10.83;;;18.70;80.60;;;;;;6233379;28;20286;-84
2023/06/23 11:28:39;;;;;;;11.13;10.37;;;18.60;80.70;;;;;;6264844;28;20234;-83
2023/06/23 11:32:04;;;;;;;11.97;10.80;;;18.60;81.00;;;;;;6266586;28;20299;-82
2023/06/23 11:35:09;;;;;;;10.13;9.53;;;18.60;81.00;;;;;;6261938;28;20227;-85
2023/06/23 11:38:14;;;;;;;9.17;8.57;;;18.60;81.10;;;;;;6237995;28;20235;-84
2023/06/23 11:41:27;;;;;;;9.93;9.23;;;18.60;81.10;;;;;;6236534;28;20231;-83
2023/06/23 11:44:32;;;;;;;10.47;9.67;;;18.70;81.00;;;;;;6229644;28;20853;-86
2023/06/23 11:47:36;;;;;;;9.10;8.40;;;18.70;81.00;;;;;;6223706;28;20251;-84
2023/06/23 11:50:43;;;;;;;11.43;10.53;;;18.80;81.00;;;;;;6236230;28;20325;-84
2023/06/23 11:53:50;;;;;;;9.20;8.60;;;18.80;81.00;;;;;;6218299;28;20231;-83
2023/06/23 11:56:53;;;;;;;10.07;9.37;;;18.90;80.90;;;;;;6237332;28;20230;-85
2023/06/23 11:59:56;;;;;;;11.70;10.90;;;18.90;80.90;;;;;;6230420;28;20312;-83
2023/06/23 12:03:02;;;;;;;11.40;10.50;;;18.90;80.80;;;;;;6229122;28;20632;-83
2023/06/23 12:06:06;;;;;;;12.83;11.93;;;18.90;81.00;;;;;;6235153;28;20239;-84
2023/06/23 12:09:09;;;;;;;12.10;11.23;;;18.80;81.00;;;;;;6237009;28;20230;-84
2023/06/23 12:12:13;;;;;;;10.93;10.20;;;18.70;80.90;;;;;;6239145;28;20238;-84
2023/06/23 12:15:22;;;;;;;12.87;11.67;;;18.70;81.10;;;;;;6231106;28;20335;-85
2023/06/23 12:18:26;;;;;;;12.30;11.37;;;18.60;81.00;;;;;;6240704;28;20243;-83
2023/06/23 12:21:32;;;;;;;11.03;10.33;;;18.50;81.20;;;;;;6246893;28;20988;-85
2023/06/23 12:24:36;;;;;;;12.20;11.20;;;18.50;81.40;;;;;;6243090;28;20276;-86
2023/06/23 12:27:39;;;;;;;16.53;15.13;;;18.50;81.40;;;;;;6244216;28;20732;-82
2023/06/23 12:30:44;;;;;;;17.13;15.80;;;18.40;81.80;;;;;;6256684;28;20307;-84
2023/06/23 12:33:51;;;;;;;16.93;15.50;;;18.40;82.10;;;;;;6243442;28;20238;-84
2023/06/23 12:37:06;;;;;;;13.87;12.77;;;18.40;82.20;;;;;;6225668;28;20242;-83
2023/06/23 12:40:11;;;;;;;12.73;11.83;;;18.30;82.00;;;;;;6246834;28;20239;-81
2023/06/23 12:43:14;;;;;;;11.97;11.03;;;18.10;81.70;;;;;;6247795;28;20250;-86
2023/06/23 12:46:18;;;;;;;11.73;10.57;;;18.10;81.70;;;;;;6245812;28;20245;-82
2023/06/23 12:49:28;;;;;;;11.53;10.63;;;18.00;81.70;;;;;;6235790;28;20243;-83
2023/06/23 12:52:33;;;;;;;12.77;11.50;;;18.00;81.60;;;;;;6249058;28;20309;-84
2023/06/23 12:55:36;;;;;;;10.47;9.67;;;17.90;81.50;;;;;;6245543;28;20712;-82
2023/06/23 12:58:39;;;;;;;9.40;8.70;;;17.80;81.50;;;;;;6278960;28;20303;-84
2023/06/23 13:01:42;;;;;;;10.67;9.77;;;17.90;81.20;;;;;;6272058;28;20263;-85
2023/06/23 13:04:46;;;;;;;9.20;8.50;;;17.80;81.20;;;;;;6235563;28;20235;-84
2023/06/23 13:07:51;;;;;;;8.63;7.93;;;17.70;81.10;;;;;;6230072;28;20668;-81
2023/06/23 13:10:54;;;;;;;8.10;7.50;;;17.60;80.80;;;;;;6236551;28;20249;-86
2023/06/23 13:13:57;;;;;;;7.87;7.17;;;17.50;80.70;;;;;;6240809;28;20235;-82
2023/06/23 13:17:05;;;;;;;7.87;7.17;;;17.50;80.70;;;;;;6243896;28;20242;-84
2023/06/23 13:20:10;;;;;;;7.20;6.67;;;17.40;80.70;;;;;;6240713;28;20280;-84
2023/06/23 13:23:15;;;;;;;6.60;6.30;;;17.30;80.70;;;;;;6235491;28;20230;-83
2023/06/23 13:26:18;;;;;;;6.97;6.57;;;17.20;80.90;;;;;;6240694;28;20239;-84
2023/06/23 13:29:21;;;;;;;8.07;7.37;;;17.20;81.10;;;;;;6228500;28;20246;-88
2023/06/23 13:32:24;;;;;;;7.10;6.70;;;17.20;81.10;;;;;;6245052;28;20250;-84
2023/06/23 13:35:28;;;;;;;7.77;7.17;;;17.20;81.40;;;;;;6232344;28;20238;-84
2023/06/23 13:38:32;;;;;;;8.17;7.47;;;17.20;81.70;;;;;;6227708;28;20534;-84
2023/06/23 13:41:36;;;;;;;10.23;8.10;;;17.20;81.60;;;;;;6229415;28;20259;-85
2023/06/23 13:44:39;;;;;;;6.83;6.33;;;17.40;81.70;;;;;;6224683;28;20433;-86
2023/06/23 13:47:42;;;;;;;7.77;7.17;;;17.40;81.60;;;;;;6231451;28;20880;-85
2023/06/23 13:50:46;;;;;;;8.57;7.67;;;17.50;81.80;;;;;;6239134;28;20313;-83
2023/06/23 13:53:50;;;;;;;8.13;7.63;;;17.50;81.80;;;;;;6238119;28;20246;-83
2023/06/23 13:56:54;;;;;;;9.57;8.57;;;17.50;81.90;;;;;;6226340;28;20231;-85
2023/06/23 13:59:58;;;;;;;8.47;7.87;;;17.50;82.00;;;;;;6237243;28;20238;-87
2023/06/23 14:03:01;;;;;;;8.70;7.83;;;17.50;82.10;;;;;;6228846;28;20247;-84
2023/06/23 14:06:05;;;;;;;8.77;8.10;;;17.50;82.10;;;;;;6231551;28;20243;-88
2023/06/23 14:09:10;;;;;;;7.53;7.03;;;17.50;81.50;;;;;;6234088;28;20235;-84
2023/06/23 14:12:13;;;;;;;6.60;6.13;;;17.40;81.30;;;;;;6234683;28;20251;-87
2023/06/23 14:15:16;;;;;;;6.90;6.33;;;17.20;80.60;;;;;;6229933;28;20328;-83
2023/06/23 14:18:20;;;;;;;6.63;6.10;;;17.20;80.20;;;;;;6242089;28;20341;-83
2023/06/23 14:21:23;;;;;;;5.97;5.57;;;17.00;79.70;;;;;;6232062;28;20273;-84
2023/06/23 14:24:28;;;;;;;6.00;5.43;;;16.90;79.80;;;;;;6228986;28;20273;-86
2023/06/23 14:27:31;;;;;;;6.00;5.50;;;16.80;79.90;;;;;;6228509;28;20242;-82
2023/06/23 14:30:34;;;;;;;5.83;5.53;;;16.60;80.20;;;;;;6238294;28;20241;-81
2023/06/23 14:33:38;;;;;;;6.70;6.30;;;16.60;80.20;;;;;;6238586;28;20227;-84
2023/06/23 14:36:41;;;;;;;6.17;5.77;;;16.60;80.40;;;;;;6218822;28;20235;-88
2023/06/23 14:39:46;;;;;;;6.73;6.23;;;16.50;80.50;;;;;;6236208;28;20494;-82
2023/06/23 14:42:49;;;;;;;6.97;6.27;;;16.40;80.90;;;;;;6231387;28;20731;-81
2023/06/23 14:45:53;;;;;;;6.27;5.97;;;16.40;80.80;;;;;;6230186;28;20278;-86
2023/06/23 14:48:58;;;;;;;6.80;6.33;;;16.50;81.00;;;;;;6236533;28;20226;-85
2023/06/23 14:52:02;;;;;;;7.43;6.77;;;16.50;81.10;;;;;;6240825;28;20253;-83
2023/06/23 14:55:07;;;;;;;7.07;6.40;;;16.50;81.10;;;;;;6241056;28;20307;-87
2023/06/23 14:58:10;;;;;;;6.57;6.07;;;16.60;81.20;;;;;;6232236;28;20241;-85
2023/06/23 15:01:14;;;;;;;6.50;6.10;;;16.50;81.00;;;;;;6225492;28;20753;-85
2023/06/23 15:04:17;;;;;;;8.83;6.97;;;16.50;81.20;;;;;;6230288;28;20245;-86
2023/06/23 15:07:20;;;;;;;6.80;6.40;;;16.60;80.90;;;;;;6232725;28;20354;-87
2023/06/23 15:10:27;;;;;;;6.83;6.40;;;16.60;81.20;;;;;;6221068;28;20250;-88
2023/06/23 15:13:30;;;;;;;7.97;7.17;;;16.60;81.50;;;;;;6232367;28;20612;-84
2023/06/23 15:16:34;;;;;;;8.33;7.10;;;16.70;81.60;;;;;;6229214;28;20247;-85
2023/06/23 15:19:37;;;;;;;7.83;7.30;;;16.80;81.60;;;;;;6232786;28;20231;-87
2023/06/23 15:22:41;;;;;;;7.63;7.13;;;16.90;81.70;;;;;;6223257;28;20231;-85
2023/06/23 15:25:54;;;;;;;8.63;7.83;;;16.90;81.90;;;;;;6237803;28;20246;-84
2023/06/23 15:28:59;;;;;;;9.43;8.53;;;17.00;82.00;;;;;;6237785;28;20698;-88
2023/06/23 15:32:03;;;;;;;10.03;9.17;;;17.00;81.80;;;;;;6283653;28;20663;-85
2023/06/23 15:35:07;;;;;;;9.30;8.67;;;17.00;81.90;;;;;;6256232;28;20484;-88
2023/06/23 15:38:11;;;;;;;9.93;9.03;;;17.10;82.10;;;;;;6262225;28;20236;-87
2023/06/23 15:41:17;;;;;;;10.90;10.10;;;17.20;82.20;;;;;;6266488;28;20234;-85
2023/06/23 15:44:21;;;;;;;9.90;9.00;;;17.20;82.30;;;;;;6266307;28;20246;-88
2023/06/23 15:47:26;;;;;;;10.07;9.27;;;17.20;82.40;;;;;;6264660;28;20277;-85
2023/06/23 15:50:30;;;;;;;9.47;8.67;;;17.30;82.00;;;;;;6267265;28;20252;-85